sensor_id;sensor_type;location;lat;lon;timestamp;temperature;humidity
23497;DHT22;11925;48.122;11.560;2023-04-06T00:00:11;8.70;64.90
23497;DHT22;11925;48.122;11.560;2023-04-06T00:02:39;8.70;65.00
23497;DHT22;11925;48.122;11.560;2023-04-06T00:05:08;8.70;65.00
23497;DHT22;11925;48.122;11.560;2023-04-06T00:07:36;8.70;65.00
23497;DHT22;11925;48.122;11.560;2023-04-06T00:10:07;8.70;65.10
23497;DHT22;11925;48.122;11.560;2023-04-06T00:12:36;8.70;65.10
23497;DHT22;11925;48.122;11.560;2023-04-06T00:15:05;8.70;65.20
23497;DHT22;11925;48.122;11.560;2023-04-06T00:17:34;8.70;65.20
23497;DHT22;11925;48.122;11.560;2023-04-06T00:20:03;8.70;65.30
23497;DHT22;11925;48.122;11.560;2023-04-06T00:22:32;8.70;65.20
23497;DHT22;11925;48.122;11.560;2023-04-06T00:25:00;8.70;65.20
23497;DHT22;11925;48.122;11.560;2023-04-06T00:27:30;8.70;65.30
23497;DHT22;11925;48.122;11.560;2023-04-06T00:29:58;8.70;65.30
23497;DHT22;11925;48.122;11.560;2023-04-06T00:32:27;8.70;65.40
23497;DHT22;11925;48.122;11.560;2023-04-06T00:34:55;8.70;65.20
23497;DHT22;11925;48.122;11.560;2023-04-06T00:37:24;8.70;65.10
23497;DHT22;11925;48.122;11.560;2023-04-06T00:39:52;8.80;65.00
23497;DHT22;11925;48.122;11.560;2023-04-06T00:42:21;8.70;64.90
23497;DHT22;11925;48.122;11.560;2023-04-06T00:44:55;8.60;64.90
23497;DHT22;11925;48.122;11.560;2023-04-06T00:47:24;8.60;65.00
23497;DHT22;11925;48.122;11.560;2023-04-06T00:49:53;8.60;65.10
23497;DHT22;11925;48.122;11.560;2023-04-06T00:52:22;8.60;65.10
23497;DHT22;11925;48.122;11.560;2023-04-06T00:54:51;8.70;65.20
23497;DHT22;11925;48.122;11.560;2023-04-06T00:57:21;8.60;65.00
23497;DHT22;11925;48.122;11.560;2023-04-06T00:59:56;8.60;65.00
23497;DHT22;11925;48.122;11.560;2023-04-06T01:02:24;8.60;65.10
23497;DHT22;11925;48.122;11.560;2023-04-06T01:04:54;8.60;65.10
23497;DHT22;11925;48.122;11.560;2023-04-06T01:07:31;8.60;65.10
23497;DHT22;11925;48.122;11.560;2023-04-06T01:10:09;8.60;65.10
23497;DHT22;11925;48.122;11.560;2023-04-06T01:12:37;8.60;65.10
23497;DHT22;11925;48.122;11.560;2023-04-06T01:15:15;8.60;65.10
23497;DHT22;11925;48.122;11.560;2023-04-06T01:17:48;8.60;65.30
23497;DHT22;11925;48.122;11.560;2023-04-06T01:20:17;8.60;65.10
23497;DHT22;11925;48.122;11.560;2023-04-06T01:22:48;8.60;65.20
23497;DHT22;11925;48.122;11.560;2023-04-06T01:25:18;8.60;65.20
23497;DHT22;11925;48.122;11.560;2023-04-06T01:28:06;8.60;65.20
23497;DHT22;11925;48.122;11.560;2023-04-06T01:30:55;8.60;65.10
23497;DHT22;11925;48.122;11.560;2023-04-06T01:33:46;8.60;65.10
23497;DHT22;11925;48.122;11.560;2023-04-06T01:36:17;8.50;65.20
23497;DHT22;11925;48.122;11.560;2023-04-06T01:38:54;8.60;65.30
23497;DHT22;11925;48.122;11.560;2023-04-06T01:41:31;8.60;65.40
23497;DHT22;11925;48.122;11.560;2023-04-06T01:43:59;8.50;65.20
23497;DHT22;11925;48.122;11.560;2023-04-06T01:46:29;8.60;65.30
23497;DHT22;11925;48.122;11.560;2023-04-06T01:48:59;8.60;65.20
23497;DHT22;11925;48.122;11.560;2023-04-06T01:51:34;8.60;65.30
23497;DHT22;11925;48.122;11.560;2023-04-06T01:54:06;8.60;65.20
23497;DHT22;11925;48.122;11.560;2023-04-06T01:56:50;8.60;65.10
23497;DHT22;11925;48.122;11.560;2023-04-06T01:59:32;8.60;65.10
23497;DHT22;11925;48.122;11.560;2023-04-06T02:02:06;8.60;65.20
23497;DHT22;11925;48.122;11.560;2023-04-06T02:04:36;8.50;65.20
23497;DHT22;11925;48.122;11.560;2023-04-06T02:07:09;8.30;65.20
23497;DHT22;11925;48.122;11.560;2023-04-06T02:09:39;8.60;65.40
23497;DHT22;11925;48.122;11.560;2023-04-06T02:12:14;8.50;65.40
23497;DHT22;11925;48.122;11.560;2023-04-06T02:14:42;8.50;65.50
23497;DHT22;11925;48.122;11.560;2023-04-06T02:17:10;8.50;65.60
23497;DHT22;11925;48.122;11.560;2023-04-06T02:19:39;8.50;65.60
23497;DHT22;11925;48.122;11.560;2023-04-06T02:22:07;8.50;65.70
23497;DHT22;11925;48.122;11.560;2023-04-06T02:24:35;8.50;65.70
23497;DHT22;11925;48.122;11.560;2023-04-06T02:27:05;8.50;65.60
23497;DHT22;11925;48.122;11.560;2023-04-06T02:29:34;8.50;65.70
23497;DHT22;11925;48.122;11.560;2023-04-06T02:32:04;8.50;65.80
23497;DHT22;11925;48.122;11.560;2023-04-06T02:34:32;8.50;65.90
23497;DHT22;11925;48.122;11.560;2023-04-06T02:37:01;8.50;66.00
23497;DHT22;11925;48.122;11.560;2023-04-06T02:39:29;8.50;66.10
23497;DHT22;11925;48.122;11.560;2023-04-06T02:42:00;8.40;66.10
23497;DHT22;11925;48.122;11.560;2023-04-06T02:44:30;8.50;66.20
23497;DHT22;11925;48.122;11.560;2023-04-06T02:46:58;8.50;66.20
23497;DHT22;11925;48.122;11.560;2023-04-06T02:49:27;8.50;66.10
23497;DHT22;11925;48.122;11.560;2023-04-06T02:51:58;8.50;66.00
23497;DHT22;11925;48.122;11.560;2023-04-06T02:54:30;8.40;66.10
23497;DHT22;11925;48.122;11.560;2023-04-06T02:57:03;8.40;66.30
23497;DHT22;11925;48.122;11.560;2023-04-06T02:59:41;8.40;66.30
23497;DHT22;11925;48.122;11.560;2023-04-06T03:02:32;8.40;66.20
23497;DHT22;11925;48.122;11.560;2023-04-06T03:05:07;8.40;66.30
23497;DHT22;11925;48.122;11.560;2023-04-06T03:07:40;8.40;66.40
23497;DHT22;11925;48.122;11.560;2023-04-06T03:10:14;8.40;66.40
23497;DHT22;11925;48.122;11.560;2023-04-06T03:12:44;8.40;66.40
23497;DHT22;11925;48.122;11.560;2023-04-06T03:15:23;8.40;66.30
23497;DHT22;11925;48.122;11.560;2023-04-06T03:18:00;8.40;66.40
23497;DHT22;11925;48.122;11.560;2023-04-06T03:20:39;8.40;66.50
23497;DHT22;11925;48.122;11.560;2023-04-06T03:23:09;8.40;66.50
23497;DHT22;11925;48.122;11.560;2023-04-06T03:25:41;8.40;66.40
23497;DHT22;11925;48.122;11.560;2023-04-06T03:28:14;8.40;66.30
23497;DHT22;11925;48.122;11.560;2023-04-06T03:30:56;8.50;66.30
23497;DHT22;11925;48.122;11.560;2023-04-06T03:33:45;8.50;66.40
23497;DHT22;11925;48.122;11.560;2023-04-06T03:36:20;8.50;66.50
23497;DHT22;11925;48.122;11.560;2023-04-06T03:38:49;8.50;66.40
23497;DHT22;11925;48.122;11.560;2023-04-06T03:41:20;8.50;66.40
23497;DHT22;11925;48.122;11.560;2023-04-06T03:43:59;8.60;66.60
23497;DHT22;11925;48.122;11.560;2023-04-06T03:46:28;8.60;66.50
23497;DHT22;11925;48.122;11.560;2023-04-06T03:48:58;8.50;66.50
23497;DHT22;11925;48.122;11.560;2023-04-06T03:51:27;8.50;66.50
23497;DHT22;11925;48.122;11.560;2023-04-06T03:53:55;8.50;66.50
23497;DHT22;11925;48.122;11.560;2023-04-06T03:56:24;8.50;66.50
23497;DHT22;11925;48.122;11.560;2023-04-06T03:58:53;8.50;66.40
23497;DHT22;11925;48.122;11.560;2023-04-06T04:01:22;8.50;66.30
23497;DHT22;11925;48.122;11.560;2023-04-06T04:03:52;8.40;66.20
23497;DHT22;11925;48.122;11.560;2023-04-06T04:06:21;8.40;66.20
23497;DHT22;11925;48.122;11.560;2023-04-06T04:08:49;8.40;66.30
23497;DHT22;11925;48.122;11.560;2023-04-06T04:11:18;8.50;67.20
23497;DHT22;11925;48.122;11.560;2023-04-06T04:13:53;8.50;66.30
23497;DHT22;11925;48.122;11.560;2023-04-06T04:16:22;8.50;66.50
23497;DHT22;11925;48.122;11.560;2023-04-06T04:18:51;8.50;66.50
23497;DHT22;11925;48.122;11.560;2023-04-06T04:21:20;8.50;66.60
23497;DHT22;11925;48.122;11.560;2023-04-06T04:23:48;8.50;67.50
23497;DHT22;11925;48.122;11.560;2023-04-06T04:26:17;8.40;66.70
23497;DHT22;11925;48.122;11.560;2023-04-06T04:28:46;8.40;66.70
23497;DHT22;11925;48.122;11.560;2023-04-06T04:31:14;8.40;66.60
23497;DHT22;11925;48.122;11.560;2023-04-06T04:33:49;8.40;66.60
23497;DHT22;11925;48.122;11.560;2023-04-06T04:36:26;8.40;66.60
23497;DHT22;11925;48.122;11.560;2023-04-06T04:38:56;8.40;66.50
23497;DHT22;11925;48.122;11.560;2023-04-06T04:41:25;8.50;66.70
23497;DHT22;11925;48.122;11.560;2023-04-06T04:43:53;8.50;66.80
23497;DHT22;11925;48.122;11.560;2023-04-06T04:46:24;8.50;66.80
23497;DHT22;11925;48.122;11.560;2023-04-06T04:48:54;8.50;66.70
23497;DHT22;11925;48.122;11.560;2023-04-06T04:51:22;8.50;66.50
23497;DHT22;11925;48.122;11.560;2023-04-06T04:54:07;8.40;66.20
23497;DHT22;11925;48.122;11.560;2023-04-06T04:56:35;8.40;66.30
23497;DHT22;11925;48.122;11.560;2023-04-06T04:59:26;8.40;66.10
23497;DHT22;11925;48.122;11.560;2023-04-06T05:02:06;8.40;66.10
23497;DHT22;11925;48.122;11.560;2023-04-06T05:04:43;8.40;66.10
23497;DHT22;11925;48.122;11.560;2023-04-06T05:07:19;8.40;66.20
23497;DHT22;11925;48.122;11.560;2023-04-06T05:09:50;8.40;66.00
23497;DHT22;11925;48.122;11.560;2023-04-06T05:12:20;8.40;66.10
23497;DHT22;11925;48.122;11.560;2023-04-06T05:14:59;8.40;66.10
23497;DHT22;11925;48.122;11.560;2023-04-06T05:17:28;8.40;66.10
23497;DHT22;11925;48.122;11.560;2023-04-06T05:19:56;8.40;66.30
23497;DHT22;11925;48.122;11.560;2023-04-06T05:22:26;8.40;66.30
23497;DHT22;11925;48.122;11.560;2023-04-06T05:25:07;8.40;66.20
23497;DHT22;11925;48.122;11.560;2023-04-06T05:27:36;8.40;66.10
23497;DHT22;11925;48.122;11.560;2023-04-06T05:30:10;8.40;66.00
23497;DHT22;11925;48.122;11.560;2023-04-06T05:32:43;8.40;66.10
23497;DHT22;11925;48.122;11.560;2023-04-06T05:35:12;8.40;65.70
23497;DHT22;11925;48.122;11.560;2023-04-06T05:37:44;8.40;65.40
23497;DHT22;11925;48.122;11.560;2023-04-06T05:40:14;8.40;65.40
23497;DHT22;11925;48.122;11.560;2023-04-06T05:42:43;8.40;65.40
23497;DHT22;11925;48.122;11.560;2023-04-06T05:45:11;8.40;65.40
23497;DHT22;11925;48.122;11.560;2023-04-06T05:47:48;8.40;65.40
23497;DHT22;11925;48.122;11.560;2023-04-06T05:50:24;8.40;65.40
23497;DHT22;11925;48.122;11.560;2023-04-06T05:52:52;8.40;65.30
23497;DHT22;11925;48.122;11.560;2023-04-06T05:55:25;8.40;65.40
23497;DHT22;11925;48.122;11.560;2023-04-06T05:58:07;8.40;65.20
23497;DHT22;11925;48.122;11.560;2023-04-06T06:00:35;8.40;65.40
23497;DHT22;11925;48.122;11.560;2023-04-06T06:03:07;8.40;65.40
23497;DHT22;11925;48.122;11.560;2023-04-06T06:05:37;8.50;65.40
23497;DHT22;11925;48.122;11.560;2023-04-06T06:08:10;8.50;65.60
23497;DHT22;11925;48.122;11.560;2023-04-06T06:10:40;8.50;65.50
23497;DHT22;11925;48.122;11.560;2023-04-06T06:13:11;8.50;65.40
23497;DHT22;11925;48.122;11.560;2023-04-06T06:15:39;8.50;65.70
23497;DHT22;11925;48.122;11.560;2023-04-06T06:18:08;8.50;65.40
23497;DHT22;11925;48.122;11.560;2023-04-06T06:20:39;8.50;65.40
23497;DHT22;11925;48.122;11.560;2023-04-06T06:23:08;8.50;65.90
23497;DHT22;11925;48.122;11.560;2023-04-06T06:25:36;8.50;65.80
23497;DHT22;11925;48.122;11.560;2023-04-06T06:28:06;8.50;65.50
23497;DHT22;11925;48.122;11.560;2023-04-06T06:30:35;8.60;65.50
23497;DHT22;11925;48.122;11.560;2023-04-06T06:33:05;8.60;66.10
23497;DHT22;11925;48.122;11.560;2023-04-06T06:35:34;8.60;65.60
23497;DHT22;11925;48.122;11.560;2023-04-06T06:38:03;8.70;65.60
23497;DHT22;11925;48.122;11.560;2023-04-06T06:40:33;8.60;65.90
23497;DHT22;11925;48.122;11.560;2023-04-06T06:43:02;8.70;65.90
23497;DHT22;11925;48.122;11.560;2023-04-06T06:45:46;8.70;66.60
23497;DHT22;11925;48.122;11.560;2023-04-06T06:48:15;8.70;66.50
23497;DHT22;11925;48.122;11.560;2023-04-06T06:50:43;8.70;66.30
23497;DHT22;11925;48.122;11.560;2023-04-06T06:53:12;8.80;66.60
23497;DHT22;11925;48.122;11.560;2023-04-06T06:55:40;8.70;66.10
23497;DHT22;11925;48.122;11.560;2023-04-06T06:58:11;8.70;65.80
23497;DHT22;11925;48.122;11.560;2023-04-06T07:00:39;8.70;65.60
23497;DHT22;11925;48.122;11.560;2023-04-06T07:03:09;8.70;65.60
23497;DHT22;11925;48.122;11.560;2023-04-06T07:05:37;8.80;65.60
23497;DHT22;11925;48.122;11.560;2023-04-06T07:08:07;8.90;66.20
23497;DHT22;11925;48.122;11.560;2023-04-06T07:10:35;8.90;66.60
23497;DHT22;11925;48.122;11.560;2023-04-06T07:13:04;9.00;66.80
23497;DHT22;11925;48.122;11.560;2023-04-06T07:15:32;8.90;67.70
23497;DHT22;11925;48.122;11.560;2023-04-06T07:18:01;8.80;66.80
23497;DHT22;11925;48.122;11.560;2023-04-06T07:20:31;8.80;66.30
23497;DHT22;11925;48.122;11.560;2023-04-06T07:22:59;8.90;66.40
23497;DHT22;11925;48.122;11.560;2023-04-06T07:25:29;8.90;67.00
23497;DHT22;11925;48.122;11.560;2023-04-06T07:27:58;9.40;67.30
23497;DHT22;11925;48.122;11.560;2023-04-06T07:30:26;8.90;66.90
23497;DHT22;11925;48.122;11.560;2023-04-06T07:32:59;8.90;66.80
23497;DHT22;11925;48.122;11.560;2023-04-06T07:35:28;8.90;66.40
23497;DHT22;11925;48.122;11.560;2023-04-06T07:37:59;8.90;65.90
23497;DHT22;11925;48.122;11.560;2023-04-06T07:40:28;9.00;66.20
23497;DHT22;11925;48.122;11.560;2023-04-06T07:42:57;8.90;65.60
23497;DHT22;11925;48.122;11.560;2023-04-06T07:45:25;8.90;65.50
23497;DHT22;11925;48.122;11.560;2023-04-06T07:47:55;9.00;65.50
23497;DHT22;11925;48.122;11.560;2023-04-06T07:50:25;9.00;65.50
23497;DHT22;11925;48.122;11.560;2023-04-06T07:52:55;9.00;65.80
23497;DHT22;11925;48.122;11.560;2023-04-06T07:55:26;9.10;65.60
23497;DHT22;11925;48.122;11.560;2023-04-06T07:57:54;9.10;65.90
23497;DHT22;11925;48.122;11.560;2023-04-06T08:00:23;9.10;65.80
23497;DHT22;11925;48.122;11.560;2023-04-06T08:02:51;9.20;66.20
23497;DHT22;11925;48.122;11.560;2023-04-06T08:05:20;9.20;65.90
23497;DHT22;11925;48.122;11.560;2023-04-06T08:07:48;9.20;65.70
23497;DHT22;11925;48.122;11.560;2023-04-06T08:10:17;9.20;66.00
23497;DHT22;11925;48.122;11.560;2023-04-06T08:12:46;9.20;65.00
23497;DHT22;11925;48.122;11.560;2023-04-06T08:15:15;9.20;65.20
23497;DHT22;11925;48.122;11.560;2023-04-06T08:17:45;9.20;64.50
23497;DHT22;11925;48.122;11.560;2023-04-06T08:20:13;9.20;64.60
23497;DHT22;11925;48.122;11.560;2023-04-06T08:22:42;9.20;64.80
23497;DHT22;11925;48.122;11.560;2023-04-06T08:25:10;9.10;63.90
23497;DHT22;11925;48.122;11.560;2023-04-06T08:27:38;9.20;63.80
23497;DHT22;11925;48.122;11.560;2023-04-06T08:30:09;9.30;63.90
23497;DHT22;11925;48.122;11.560;2023-04-06T08:32:37;9.30;64.90
23497;DHT22;11925;48.122;11.560;2023-04-06T08:35:08;9.30;66.00
23497;DHT22;11925;48.122;11.560;2023-04-06T08:37:36;9.40;66.20
23497;DHT22;11925;48.122;11.560;2023-04-06T08:40:06;9.30;65.70
23497;DHT22;11925;48.122;11.560;2023-04-06T08:42:39;9.20;63.30
23497;DHT22;11925;48.122;11.560;2023-04-06T08:45:10;9.30;63.90
23497;DHT22;11925;48.122;11.560;2023-04-06T08:47:39;9.30;65.30
23497;DHT22;11925;48.122;11.560;2023-04-06T08:50:08;9.30;66.00
23497;DHT22;11925;48.122;11.560;2023-04-06T08:52:38;9.30;66.30
23497;DHT22;11925;48.122;11.560;2023-04-06T08:55:07;9.30;66.40
23497;DHT22;11925;48.122;11.560;2023-04-06T08:57:36;9.30;66.50
23497;DHT22;11925;48.122;11.560;2023-04-06T09:00:06;9.30;66.00
23497;DHT22;11925;48.122;11.560;2023-04-06T09:02:39;9.40;65.20
23497;DHT22;11925;48.122;11.560;2023-04-06T09:05:08;9.40;64.10
23497;DHT22;11925;48.122;11.560;2023-04-06T09:07:38;9.40;65.30
23497;DHT22;11925;48.122;11.560;2023-04-06T09:10:07;9.50;64.40
23497;DHT22;11925;48.122;11.560;2023-04-06T09:12:36;9.50;65.20
23497;DHT22;11925;48.122;11.560;2023-04-06T09:15:05;9.50;65.60
23497;DHT22;11925;48.122;11.560;2023-04-06T09:17:34;9.50;65.80
23497;DHT22;11925;48.122;11.560;2023-04-06T09:20:06;9.40;66.00
23497;DHT22;11925;48.122;11.560;2023-04-06T09:22:37;9.40;66.30
23497;DHT22;11925;48.122;11.560;2023-04-06T09:25:08;9.50;66.60
23497;DHT22;11925;48.122;11.560;2023-04-06T09:27:37;9.50;66.80
23497;DHT22;11925;48.122;11.560;2023-04-06T09:30:07;9.50;67.00
23497;DHT22;11925;48.122;11.560;2023-04-06T09:32:47;9.50;67.50
23497;DHT22;11925;48.122;11.560;2023-04-06T09:35:18;9.50;67.50
23497;DHT22;11925;48.122;11.560;2023-04-06T09:37:48;9.60;67.60
23497;DHT22;11925;48.122;11.560;2023-04-06T09:40:16;9.60;67.70
23497;DHT22;11925;48.122;11.560;2023-04-06T09:42:47;9.60;67.70
23497;DHT22;11925;48.122;11.560;2023-04-06T09:45:17;9.60;67.30
23497;DHT22;11925;48.122;11.560;2023-04-06T09:47:45;9.60;66.20
23497;DHT22;11925;48.122;11.560;2023-04-06T09:50:14;9.60;66.60
23497;DHT22;11925;48.122;11.560;2023-04-06T09:52:47;9.60;64.70
23497;DHT22;11925;48.122;11.560;2023-04-06T09:55:20;9.60;65.40
23497;DHT22;11925;48.122;11.560;2023-04-06T09:57:57;9.70;66.60
23497;DHT22;11925;48.122;11.560;2023-04-06T10:00:28;9.60;66.80
23497;DHT22;11925;48.122;11.560;2023-04-06T10:03:06;9.60;67.30
23497;DHT22;11925;48.122;11.560;2023-04-06T10:05:41;9.60;67.40
23497;DHT22;11925;48.122;11.560;2023-04-06T10:08:12;9.60;66.70
23497;DHT22;11925;48.122;11.560;2023-04-06T10:10:41;9.60;65.90
23497;DHT22;11925;48.122;11.560;2023-04-06T10:13:11;9.60;64.80
23497;DHT22;11925;48.122;11.560;2023-04-06T10:15:39;9.60;64.50
23497;DHT22;11925;48.122;11.560;2023-04-06T10:18:08;9.60;63.20
23497;DHT22;11925;48.122;11.560;2023-04-06T10:20:41;9.60;62.70
23497;DHT22;11925;48.122;11.560;2023-04-06T10:23:13;9.60;62.20
23497;DHT22;11925;48.122;11.560;2023-04-06T10:25:52;9.60;62.90
23497;DHT22;11925;48.122;11.560;2023-04-06T10:28:22;9.60;62.30
23497;DHT22;11925;48.122;11.560;2023-04-06T10:30:57;9.70;62.90
23497;DHT22;11925;48.122;11.560;2023-04-06T10:33:25;9.70;64.50
23497;DHT22;11925;48.122;11.560;2023-04-06T10:35:54;9.60;65.30
23497;DHT22;11925;48.122;11.560;2023-04-06T10:38:34;9.60;65.20
23497;DHT22;11925;48.122;11.560;2023-04-06T10:41:09;9.70;65.40
23497;DHT22;11925;48.122;11.560;2023-04-06T10:43:38;9.70;65.40
23497;DHT22;11925;48.122;11.560;2023-04-06T10:46:09;9.80;65.80
23497;DHT22;11925;48.122;11.560;2023-04-06T10:48:38;9.70;66.50
23497;DHT22;11925;48.122;11.560;2023-04-06T10:51:11;9.80;66.30
23497;DHT22;11925;48.122;11.560;2023-04-06T10:53:42;9.70;66.20
23497;DHT22;11925;48.122;11.560;2023-04-06T10:56:13;9.80;66.10
23497;DHT22;11925;48.122;11.560;2023-04-06T10:58:45;9.80;66.30
23497;DHT22;11925;48.122;11.560;2023-04-06T11:01:15;9.80;65.70
23497;DHT22;11925;48.122;11.560;2023-04-06T11:03:45;9.70;63.50
23497;DHT22;11925;48.122;11.560;2023-04-06T11:06:20;9.70;64.50
23497;DHT22;11925;48.122;11.560;2023-04-06T11:08:50;9.80;64.80
23497;DHT22;11925;48.122;11.560;2023-04-06T11:11:20;9.80;64.20
23497;DHT22;11925;48.122;11.560;2023-04-06T11:13:51;9.80;63.70
23497;DHT22;11925;48.122;11.560;2023-04-06T11:16:21;9.80;63.40
23497;DHT22;11925;48.122;11.560;2023-04-06T11:18:51;9.80;62.00
23497;DHT22;11925;48.122;11.560;2023-04-06T11:21:31;9.80;63.00
23497;DHT22;11925;48.122;11.560;2023-04-06T11:24:08;9.80;60.80
23497;DHT22;11925;48.122;11.560;2023-04-06T11:26:38;9.80;62.00
23497;DHT22;11925;48.122;11.560;2023-04-06T11:29:07;9.80;62.30
23497;DHT22;11925;48.122;11.560;2023-04-06T11:31:42;9.90;61.50
23497;DHT22;11925;48.122;11.560;2023-04-06T11:34:15;9.80;61.40
23497;DHT22;11925;48.122;11.560;2023-04-06T11:36:45;9.90;62.20
23497;DHT22;11925;48.122;11.560;2023-04-06T11:39:19;10.10;83.20
23497;DHT22;11925;48.122;11.560;2023-04-06T11:41:48;9.90;61.30
23497;DHT22;11925;48.122;11.560;2023-04-06T11:44:28;10.00;62.10
23497;DHT22;11925;48.122;11.560;2023-04-06T11:46:58;10.00;62.00
23497;DHT22;11925;48.122;11.560;2023-04-06T11:49:27;9.70;61.10
23497;DHT22;11925;48.122;11.560;2023-04-06T11:51:55;10.00;61.30
23497;DHT22;11925;48.122;11.560;2023-04-06T11:54:33;10.00;61.70
23497;DHT22;11925;48.122;11.560;2023-04-06T11:57:01;10.00;61.70
23497;DHT22;11925;48.122;11.560;2023-04-06T11:59:30;10.00;61.20
23497;DHT22;11925;48.122;11.560;2023-04-06T12:01:58;10.10;60.60
23497;DHT22;11925;48.122;11.560;2023-04-06T12:04:26;10.00;61.00
23497;DHT22;11925;48.122;11.560;2023-04-06T12:06:55;10.10;61.40
23497;DHT22;11925;48.122;11.560;2023-04-06T12:09:24;10.10;60.90
23497;DHT22;11925;48.122;11.560;2023-04-06T12:11:54;10.10;61.10
23497;DHT22;11925;48.122;11.560;2023-04-06T12:14:23;10.10;61.30
23497;DHT22;11925;48.122;11.560;2023-04-06T12:16:51;10.10;61.00
23497;DHT22;11925;48.122;11.560;2023-04-06T12:19:19;10.10;60.90
23497;DHT22;11925;48.122;11.560;2023-04-06T12:21:52;10.10;62.70
23497;DHT22;11925;48.122;11.560;2023-04-06T12:24:21;10.20;64.30
23497;DHT22;11925;48.122;11.560;2023-04-06T12:26:50;10.20;64.20
23497;DHT22;11925;48.122;11.560;2023-04-06T12:29:30;10.20;64.00
23497;DHT22;11925;48.122;11.560;2023-04-06T12:31:59;10.20;64.20
23497;DHT22;11925;48.122;11.560;2023-04-06T12:34:29;10.20;64.10
23497;DHT22;11925;48.122;11.560;2023-04-06T12:36:57;10.20;63.50
23497;DHT22;11925;48.122;11.560;2023-04-06T12:39:26;10.20;63.20
23497;DHT22;11925;48.122;11.560;2023-04-06T12:41:55;10.20;62.30
23497;DHT22;11925;48.122;11.560;2023-04-06T12:44:24;10.20;61.10
23497;DHT22;11925;48.122;11.560;2023-04-06T12:46:54;10.40;60.10
23497;DHT22;11925;48.122;11.560;2023-04-06T12:49:23;10.10;62.10
23497;DHT22;11925;48.122;11.560;2023-04-06T12:51:51;10.20;62.40
23497;DHT22;11925;48.122;11.560;2023-04-06T12:54:20;10.20;62.00
23497;DHT22;11925;48.122;11.560;2023-04-06T12:56:48;10.20;62.50
23497;DHT22;11925;48.122;11.560;2023-04-06T12:59:17;10.30;61.90
23497;DHT22;11925;48.122;11.560;2023-04-06T13:01:45;10.30;61.80
23497;DHT22;11925;48.122;11.560;2023-04-06T13:04:15;10.30;62.00
23497;DHT22;11925;48.122;11.560;2023-04-06T13:06:43;10.30;61.10
23497;DHT22;11925;48.122;11.560;2023-04-06T13:09:13;10.30;60.60
23497;DHT22;11925;48.122;11.560;2023-04-06T13:11:41;10.30;62.00
23497;DHT22;11925;48.122;11.560;2023-04-06T13:14:10;10.30;59.80
23497;DHT22;11925;48.122;11.560;2023-04-06T13:16:38;10.20;59.50
23497;DHT22;11925;48.122;11.560;2023-04-06T13:19:07;10.20;59.10
23497;DHT22;11925;48.122;11.560;2023-04-06T13:21:37;10.20;59.00
23497;DHT22;11925;48.122;11.560;2023-04-06T13:24:05;10.20;58.50
23497;DHT22;11925;48.122;11.560;2023-04-06T13:26:34;10.20;58.80
23497;DHT22;11925;48.122;11.560;2023-04-06T13:29:02;10.30;59.20
23497;DHT22;11925;48.122;11.560;2023-04-06T13:31:31;10.20;59.40
23497;DHT22;11925;48.122;11.560;2023-04-06T13:33:59;10.30;63.10
23497;DHT22;11925;48.122;11.560;2023-04-06T13:36:28;10.30;62.70
23497;DHT22;11925;48.122;11.560;2023-04-06T13:38:58;10.30;62.90
23497;DHT22;11925;48.122;11.560;2023-04-06T13:41:26;10.20;64.60
23497;DHT22;11925;48.122;11.560;2023-04-06T13:43:55;10.20;63.80
23497;DHT22;11925;48.122;11.560;2023-04-06T13:46:25;10.20;63.40
23497;DHT22;11925;48.122;11.560;2023-04-06T13:48:54;10.30;62.60
23497;DHT22;11925;48.122;11.560;2023-04-06T13:51:23;10.30;62.50
23497;DHT22;11925;48.122;11.560;2023-04-06T13:53:51;10.30;61.70
23497;DHT22;11925;48.122;11.560;2023-04-06T13:56:21;10.30;63.00
23497;DHT22;11925;48.122;11.560;2023-04-06T13:58:53;10.30;63.10
23497;DHT22;11925;48.122;11.560;2023-04-06T14:01:21;10.30;63.20
23497;DHT22;11925;48.122;11.560;2023-04-06T14:03:49;10.30;64.50
23497;DHT22;11925;48.122;11.560;2023-04-06T14:06:18;10.30;64.60
23497;DHT22;11925;48.122;11.560;2023-04-06T14:08:58;10.30;63.60
23497;DHT22;11925;48.122;11.560;2023-04-06T14:11:28;10.30;62.80
23497;DHT22;11925;48.122;11.560;2023-04-06T14:13:56;10.30;61.80
23497;DHT22;11925;48.122;11.560;2023-04-06T14:16:25;10.30;61.40
23497;DHT22;11925;48.122;11.560;2023-04-06T14:18:53;10.30;62.20
23497;DHT22;11925;48.122;11.560;2023-04-06T14:21:22;10.30;61.70
23497;DHT22;11925;48.122;11.560;2023-04-06T14:23:50;10.40;62.30
23497;DHT22;11925;48.122;11.560;2023-04-06T14:26:19;10.40;61.30
23497;DHT22;11925;48.122;11.560;2023-04-06T14:28:49;10.40;59.90
23497;DHT22;11925;48.122;11.560;2023-04-06T14:31:17;10.40;59.30
23497;DHT22;11925;48.122;11.560;2023-04-06T14:33:45;10.40;59.80
23497;DHT22;11925;48.122;11.560;2023-04-06T14:36:13;10.40;60.50
23497;DHT22;11925;48.122;11.560;2023-04-06T14:38:42;10.40;61.90
23497;DHT22;11925;48.122;11.560;2023-04-06T14:41:16;10.40;61.70
23497;DHT22;11925;48.122;11.560;2023-04-06T14:43:45;10.40;60.40
23497;DHT22;11925;48.122;11.560;2023-04-06T14:46:15;10.30;59.50
23497;DHT22;11925;48.122;11.560;2023-04-06T14:48:44;10.40;59.10
23497;DHT22;11925;48.122;11.560;2023-04-06T14:51:13;10.40;58.80
23497;DHT22;11925;48.122;11.560;2023-04-06T14:53:41;10.40;59.20
23497;DHT22;11925;48.122;11.560;2023-04-06T14:56:10;10.40;58.90
23497;DHT22;11925;48.122;11.560;2023-04-06T14:58:38;10.40;58.80
23497;DHT22;11925;48.122;11.560;2023-04-06T15:01:06;10.40;58.70
23497;DHT22;11925;48.122;11.560;2023-04-06T15:03:36;10.30;58.70
23497;DHT22;11925;48.122;11.560;2023-04-06T15:06:05;10.40;58.70
23497;DHT22;11925;48.122;11.560;2023-04-06T15:08:34;10.30;58.50
23497;DHT22;11925;48.122;11.560;2023-04-06T15:11:02;10.30;60.00
23497;DHT22;11925;48.122;11.560;2023-04-06T15:13:30;10.40;60.60
23497;DHT22;11925;48.122;11.560;2023-04-06T15:15:58;10.40;60.50
23497;DHT22;11925;48.122;11.560;2023-04-06T15:18:28;10.40;59.70
23497;DHT22;11925;48.122;11.560;2023-04-06T15:20:57;10.40;59.20
23497;DHT22;11925;48.122;11.560;2023-04-06T15:23:26;10.40;59.00
23497;DHT22;11925;48.122;11.560;2023-04-06T15:25:56;10.40;58.90
23497;DHT22;11925;48.122;11.560;2023-04-06T15:28:25;10.40;59.10
23497;DHT22;11925;48.122;11.560;2023-04-06T15:30:54;10.40;58.40
23497;DHT22;11925;48.122;11.560;2023-04-06T15:33:23;10.40;58.70
23497;DHT22;11925;48.122;11.560;2023-04-06T15:35:52;10.40;58.40
23497;DHT22;11925;48.122;11.560;2023-04-06T15:38:21;10.40;58.10
23497;DHT22;11925;48.122;11.560;2023-04-06T15:40:50;10.40;57.40
23497;DHT22;11925;48.122;11.560;2023-04-06T15:43:18;10.40;57.40
23497;DHT22;11925;48.122;11.560;2023-04-06T15:45:46;10.40;57.90
23497;DHT22;11925;48.122;11.560;2023-04-06T15:48:15;10.40;61.50